Time;durP1;ratioP1;P1;durP2;ratioP2;P2;SDS_P1;SDS_P2;PMS_P1;PMS_P2;Temp;Humidity;BMP_temperature;BMP_pressure;BME280_temperature;BME280_humidity;BME280_pressure;Samples;Min_cycle;Max_cycle;Signal;HPM_P1;HPM_P2
2022/03/11 00:00:40;;;;;;;;;;;7.40;66.80;;;6.03;44.13;101499.25;2568536;30;138069;-41
2022/03/11 00:03:10;;;;;;;;;;;7.40;66.90;;;5.97;44.63;101500.75;2569021;30;136983;-41
2022/03/11 00:05:39;;;;;;;;;;;7.40;66.90;;;6.01;44.44;101504.84;2568840;30;137690;-41
2022/03/11 00:08:07;;;;;;;;;;;7.40;67.20;;;5.97;44.63;101502.59;2567871;30;137372;-41
2022/03/11 00:10:34;;;;;;;;;;;7.40;67.20;;;6.03;43.62;101502.81;2573436;30;138977;-41
2022/03/11 00:13:02;;;;;;;;;;;7.40;66.30;;;6.10;43.80;101500.28;2568222;30;136735;-41
2022/03/11 00:15:29;;;;;;;;;;;7.50;66.40;;;6.12;43.55;101495.56;2568497;30;138529;-42
2022/03/11 00:17:57;;;;;;;;;;;7.50;66.10;;;6.03;43.64;101488.41;2570221;30;137753;-43
2022/03/11 00:20:24;;;;;;;;;;;7.50;66.20;;;6.22;43.85;101494.53;2570219;30;138561;-41
2022/03/11 00:22:53;;;;;;;;;;;7.60;66.30;;;6.19;43.97;101501.13;2567025;30;136935;-41
2022/03/11 00:25:21;;;;;;;;;;;7.50;66.40;;;6.19;43.24;101495.72;2570736;30;138257;-41
2022/03/11 00:27:50;;;;;;;;;;;7.60;65.90;;;6.17;43.52;101493.19;2569793;30;137514;-41
2022/03/11 00:30:18;;;;;;;;;;;7.60;66.20;;;6.17;43.33;101492.31;2567913;30;137240;-41
2022/03/11 00:32:46;;;;;;;;;;;7.50;65.90;;;6.12;44.19;101495.56;2570512;30;138146;-41
2022/03/11 00:35:14;;;;;;;;;;;7.50;67.10;;;6.10;43.67;101492.16;2569323;30;137325;-41
2022/03/11 00:37:42;;;;;;;;;;;7.50;66.20;;;6.10;43.11;101500.28;2568179;30;137220;-41
2022/03/11 00:40:12;;;;;;;;;;;7.50;65.90;;;6.03;43.90;101501.94;2570875;30;138323;-41
2022/03/11 00:42:40;;;;;;;;;;;7.50;66.30;;;6.03;43.11;101504.66;2567565;30;138310;-41
2022/03/11 00:45:08;;;;;;;;;;;7.50;65.60;;;6.05;43.63;101502.63;2569374;30;137333;-41
2022/03/11 00:47:35;;;;;;;;;;;7.50;66.20;;;6.06;43.59;101498.91;2570552;30;137344;-41
2022/03/11 00:50:03;;;;;;;;;;;7.40;66.30;;;6.00;43.97;101499.53;2569445;30;139284;-41
2022/03/11 00:52:30;;;;;;;;;;;7.40;66.60;;;6.00;43.65;101504.97;2570149;30;137828;-41
2022/03/11 00:54:58;;;;;;;;;;;7.40;66.60;;;6.00;43.66;101503.13;2571607;30;138327;-41
2022/03/11 00:57:25;;;;;;;;;;;7.40;66.10;;;5.99;43.47;101495.16;2567419;30;136955;-41
2022/03/11 00:59:53;;;;;;;;;;;7.40;66.10;;;5.99;43.28;101487.00;2568819;30;138975;-41
2022/03/11 01:02:20;;;;;;;;;;;7.40;66.00;;;6.01;43.64;101482.31;2570867;30;136921;-41
2022/03/11 01:04:49;;;;;;;;;;;7.40;66.10;;;5.91;44.47;101490.53;2569003;30;139001;-41
2022/03/11 01:07:17;;;;;;;;;;;7.40;67.00;;;5.94;43.39;101471.25;2569268;30;137376;-41
2022/03/11 01:09:47;;;;;;;;;;;7.40;66.10;;;5.93;44.08;101477.69;2571264;30;138954;-41
2022/03/11 01:12:14;;;;;;;;;;;7.30;66.60;;;5.83;44.83;101475.13;2569794;30;136758;-41
2022/03/11 01:14:42;;;;;;;;;;;7.30;67.60;;;5.92;43.95;101467.88;2570067;30;139259;-41
2022/03/11 01:17:11;;;;;;;;;;;7.30;66.60;;;5.84;44.49;101473.28;2567172;30;137417;-41
2022/03/11 01:19:39;;;;;;;;;;;7.30;67.20;;;5.93;43.60;101464.13;2574272;30;137384;-40
2022/03/11 01:22:07;;;;;;;;;;;7.30;66.10;;;5.92;43.53;101467.03;2568935;30;139099;-41
2022/03/11 01:24:37;;;;;;;;;;;7.30;66.10;;;5.87;44.03;101462.97;2568966;30;139031;-40
2022/03/11 01:27:05;;;;;;;;;;;7.30;66.70;;;5.84;44.82;101471.44;2568812;30;137208;-40
2022/03/11 01:29:32;;;;;;;;;;;7.30;67.50;;;5.81;44.46;101455.47;2568954;30;137339;-40
2022/03/11 01:32:00;;;;;;;;;;;7.30;66.80;;;5.73;44.27;101459.03;2567114;30;137061;-40
2022/03/11 01:34:27;;;;;;;;;;;7.20;67.00;;;5.80;44.59;101456.50;2568717;30;137411;-40
2022/03/11 01:36:58;;;;;;;;;;;7.20;67.60;;;5.83;44.24;101452.63;2569578;30;138376;-40
2022/03/11 01:39:25;;;;;;;;;;;7.20;67.00;;;5.76;44.48;101456.00;2569255;30;138297;-40
2022/03/11 01:41:53;;;;;;;;;;;7.20;67.00;;;5.69;44.67;101463.06;2568343;30;137270;-40
2022/03/11 01:44:26;;;;;;;;;;;7.20;67.10;;;5.57;45.48;101454.41;2567674;30;137982;-40
2022/03/11 01:46:55;;;;;;;;;;;7.10;67.70;;;5.60;45.25;101459.50;2568850;30;139196;-40
2022/03/11 01:49:23;;;;;;;;;;;7.10;67.70;;;5.56;45.38;101454.56;2567944;30;137753;-40
2022/03/11 01:51:50;;;;;;;;;;;7.00;68.20;;;5.50;45.83;101453.34;2568848;30;137019;-40
2022/03/11 01:54:18;;;;;;;;;;;7.00;68.30;;;5.50;45.51;101449.81;2568824;30;139052;-40
2022/03/11 01:56:46;;;;;;;;;;;6.90;68.00;;;5.46;46.19;101452.00;2566797;30;138049;-39
2022/03/11 01:59:14;;;;;;;;;;;6.90;69.00;;;5.44;45.54;101444.06;2567369;30;138002;-40
2022/03/11 02:01:41;;;;;;;;;;;6.90;68.30;;;5.50;45.83;101437.13;2568446;30;137245;-40
2022/03/11 02:04:09;;;;;;;;;;;6.90;68.60;;;5.50;46.28;101442.53;2567825;30;138408;-40
2022/03/11 02:06:36;;;;;;;;;;;6.90;69.00;;;5.43;45.76;101444.22;2567462;30;136651;-40
2022/03/11 02:09:04;;;;;;;;;;;6.90;68.70;;;5.41;45.56;101438.09;2568610;30;138143;-40
2022/03/11 02:11:31;;;;;;;;;;;6.80;68.40;;;5.40;46.00;101433.72;2568561;30;137099;-40
2022/03/11 02:14:00;;;;;;;;;;;6.80;68.70;;;5.40;46.12;101434.53;2567898;30;138488;-40
2022/03/11 02:16:32;;;;;;;;;;;6.80;68.80;;;5.38;46.47;101428.44;2568435;30;137059;-40
2022/03/11 02:19:00;;;;;;;;;;;6.80;69.60;;;5.30;46.44;101423.88;2566307;30;138448;-40
2022/03/11 02:21:29;;;;;;;;;;;6.80;69.30;;;5.32;46.48;101429.97;2568878;30;137160;-40
2022/03/11 02:23:58;;;;;;;;;;;6.80;69.10;;;5.19;47.07;101434.97;2569484;30;138522;-40
2022/03/11 02:26:27;;;;;;;;;;;6.70;70.00;;;5.17;47.25;101429.75;2568814;30;137136;-40
2022/03/11 02:28:57;;;;;;;;;;;6.70;70.00;;;5.12;48.03;101425.81;2567923;30;139019;-40
2022/03/11 02:31:28;;;;;;;;;;;6.60;70.70;;;5.20;47.85;101427.72;2569198;30;136936;-39
2022/03/11 02:33:57;;;;;;;;;;;6.60;70.80;;;5.12;47.52;101423.94;2567696;30;138457;-39
2022/03/11 02:36:25;;;;;;;;;;;6.60;70.70;;;5.17;47.60;101424.31;2568933;30;137109;-40
2022/03/11 02:38:53;;;;;;;;;;;6.60;70.50;;;5.18;47.85;101422.44;2565898;30;139362;-40
2022/03/11 02:41:23;;;;;;;;;;;6.60;71.10;;;5.18;48.49;101426.03;2568126;30;137289;-40
2022/03/11 02:43:50;;;;;;;;;;;6.60;71.70;;;5.27;47.67;101424.19;2565700;30;138541;-40
2022/03/11 02:46:18;;;;;;;;;;;6.70;71.00;;;5.33;47.90;101406.44;2569357;30;137049;-40
2022/03/11 02:48:45;;;;;;;;;;;6.70;71.10;;;5.25;48.68;101409.13;2565981;30;137771;-39
2022/03/11 02:51:13;;;;;;;;;;;6.70;71.80;;;5.25;48.10;101411.84;2568049;30;136795;-40
2022/03/11 02:53:41;;;;;;;;;;;6.70;71.40;;;5.24;48.21;101410.97;2568178;30;137495;-40
2022/03/11 02:56:11;;;;;;;;;;;6.70;71.40;;;5.15;48.64;101407.38;2568882;30;137031;-40
2022/03/11 02:58:40;;;;;;;;;;;6.60;71.80;;;5.03;48.67;101406.81;2568191;30;138248;-40
2022/03/11 03:01:09;;;;;;;;;;;6.60;71.80;;;4.97;49.17;101399.34;2569143;30;137416;-41
2022/03/11 03:03:37;;;;;;;;;;;6.50;72.30;;;4.95;50.17;101403.25;2567639;30;139015;-40
2022/03/11 03:06:06;;;;;;;;;;;6.40;73.60;;;4.88;49.93;101406.56;2569353;30;137047;-39
2022/03/11 03:08:34;;;;;;;;;;;6.40;73.00;;;4.88;49.94;101401.16;2568810;30;138265;-40
2022/03/11 03:11:01;;;;;;;;;;;6.30;73.10;;;4.89;50.15;101399.31;2568804;30;136761;-40
2022/03/11 03:13:29;;;;;;;;;;;6.40;73.40;;;4.85;50.36;101397.97;2567124;30;138227;-40
2022/03/11 03:15:56;;;;;;;;;;;6.30;73.40;;;4.92;49.81;101398.16;2568678;30;137120;-40
2022/03/11 03:18:24;;;;;;;;;;;6.30;73.10;;;4.87;51.42;101395.94;2567471;30;137259;-40
2022/03/11 03:20:51;;;;;;;;;;;6.30;74.60;;;4.77;51.24;101398.75;2567200;30;138813;-39
2022/03/11 03:23:19;;;;;;;;;;;6.30;74.50;;;4.75;51.33;101393.50;2568429;30;138993;-40
2022/03/11 03:25:47;;;;;;;;;;;6.20;74.70;;;4.75;50.73;101390.78;2568006;30;137028;-40
2022/03/11 03:28:14;;;;;;;;;;;6.20;74.10;;;4.75;51.09;101393.50;2567606;30;138259;-40
2022/03/11 03:30:42;;;;;;;;;;;6.20;74.40;;;4.78;51.36;101386.09;2567538;30;137239;-40
2022/03/11 03:33:09;;;;;;;;;;;6.20;75.10;;;4.87;50.87;101395.94;2568692;30;138446;-40
2022/03/11 03:35:37;;;;;;;;;;;6.30;74.60;;;4.82;51.05;101396.41;2568240;30;137216;-40
2022/03/11 03:38:06;;;;;;;;;;;6.30;74.60;;;4.74;50.73;101396.38;2565841;30;138512;-40
2022/03/11 03:40:33;;;;;;;;;;;6.20;74.10;;;4.65;51.69;101394.63;2569431;30;137285;-40
2022/03/11 03:43:01;;;;;;;;;;;6.20;75.00;;;4.71;51.19;101394.81;2567452;30;137346;-40
2022/03/11 03:45:30;;;;;;;;;;;6.20;74.70;;;4.67;51.77;101393.44;2568614;30;137015;-40
2022/03/11 03:48:00;;;;;;;;;;;6.20;75.20;;;4.56;52.52;101399.13;2567887;30;138557;-40
2022/03/11 03:50:29;;;;;;;;;;;6.10;76.10;;;4.54;52.11;101395.75;2567694;30;136974;-40
2022/03/11 03:52:56;;;;;;;;;;;6.00;75.80;;;4.55;52.08;101395.56;2567687;30;136711;-40
2022/03/11 03:55:24;;;;;;;;;;;6.00;76.00;;;4.50;52.23;101394.34;2568832;30;137464;-40
2022/03/11 03:57:51;;;;;;;;;;;6.00;75.90;;;4.49;52.63;101390.81;2568560;30;137529;-40
2022/03/11 04:00:19;;;;;;;;;;;6.00;76.40;;;4.42;52.69;101393.28;2570705;30;137078;-40
2022/03/11 04:02:47;;;;;;;;;;;5.90;76.40;;;4.38;53.12;101391.91;2569838;30;139045;-40
2022/03/11 04:05:16;;;;;;;;;;;5.90;76.70;;;4.41;52.65;101394.28;2568239;30;137740;-39
2022/03/11 04:07:44;;;;;;;;;;;5.80;76.40;;;4.35;53.36;101399.47;2569574;30;137439;-39
2022/03/11 04:10:13;;;;;;;;;;;5.80;77.00;;;4.37;52.86;101401.03;2570512;30;137032;-40
2022/03/11 04:12:41;;;;;;;;;;;5.90;76.70;;;4.56;51.99;101391.84;2569569;30;137285;-40
2022/03/11 04:15:09;;;;;;;;;;;5.90;76.20;;;4.52;52.52;101393.19;2569662;30;138004;-40
2022/03/11 04:17:37;;;;;;;;;;;5.90;76.30;;;4.40;52.73;101386.38;2568981;30;138275;-39
2022/03/11 04:20:05;;;;;;;;;;;5.90;76.30;;;4.40;53.29;101389.06;2569831;30;136873;-39
2022/03/11 04:22:38;;;;;;;;;;;5.90;77.10;;;4.34;52.76;101387.81;2569048;30;138380;-40
2022/03/11 04:25:07;;;;;;;;;;;5.80;76.70;;;4.27;53.48;101392.19;2568168;30;137603;-40
2022/03/11 04:27:35;;;;;;;;;;;5.80;77.50;;;4.36;53.18;101388.53;2569349;30;138314;-40
2022/03/11 04:30:03;;;;;;;;;;;5.80;77.10;;;4.34;53.00;101387.81;2565700;30;137536;-40
2022/03/11 04:32:31;;;;;;;;;;;5.80;77.10;;;4.39;53.65;101395.47;2570956;30;138268;-40
2022/03/11 04:34:58;;;;;;;;;;;5.80;77.50;;;4.34;52.94;101390.53;2568351;30;136882;-40
2022/03/11 04:37:26;;;;;;;;;;;5.80;76.70;;;4.34;52.76;101393.22;2569017;30;138289;-40
2022/03/11 04:39:53;;;;;;;;;;;5.80;76.70;;;4.35;53.00;101389.53;2569697;30;137910;-40
2022/03/11 04:42:20;;;;;;;;;;;5.70;77.20;;;4.23;53.71;101390.75;2569478;30;138105;-40
2022/03/11 04:44:48;;;;;;;;;;;5.70;77.50;;;4.27;53.50;101384.06;2566524;30;137037;-39
2022/03/11 04:47:15;;;;;;;;;;;5.70;77.50;;;4.27;52.82;101392.19;2568325;30;138238;-40
2022/03/11 04:49:44;;;;;;;;;;;5.70;76.90;;;4.31;52.86;101391.69;2569083;30;137808;-40
2022/03/11 04:52:11;;;;;;;;;;;5.80;77.10;;;4.31;53.90;101388.97;2568814;30;138298;-40
2022/03/11 04:54:39;;;;;;;;;;;5.80;77.90;;;4.34;53.26;101390.53;2569244;30;137245;-40
2022/03/11 04:57:06;;;;;;;;;;;5.80;77.20;;;4.32;53.04;101387.97;2570468;30;139251;-40
2022/03/11 04:59:33;;;;;;;;;;;5.80;77.20;;;4.23;53.57;101383.53;2567681;30;137211;-40
2022/03/11 05:02:01;;;;;;;;;;;5.70;77.60;;;4.20;54.31;101380.28;2568185;30;139053;-39
2022/03/11 05:04:28;;;;;;;;;;;5.70;78.00;;;4.30;53.37;101383.75;2569596;30;137121;-39
2022/03/11 05:06:56;;;;;;;;;;;5.70;77.60;;;4.31;53.37;101388.16;2568574;30;138567;-39
2022/03/11 05:09:23;;;;;;;;;;;5.80;77.60;;;4.36;53.38;101383.13;2568591;30;136832;-40
2022/03/11 05:11:51;;;;;;;;;;;5.80;77.60;;;4.31;53.39;101377.34;2568608;30;138503;-40
2022/03/11 05:14:18;;;;;;;;;;;5.80;77.30;;;4.25;53.36;101377.97;2569099;30;136943;-40
2022/03/11 05:16:45;;;;;;;;;;;5.70;77.30;;;4.31;53.44;101374.66;2566281;30;137907;-40
2022/03/11 05:19:13;;;;;;;;;;;5.70;77.50;;;4.34;53.04;101371.63;2568191;30;136779;-39
2022/03/11 05:21:40;;;;;;;;;;;5.80;77.20;;;4.29;53.72;101377.47;2569599;30;138316;-40
2022/03/11 05:24:08;;;;;;;;;;;5.70;77.90;;;4.29;53.38;101377.47;2567642;30;137774;-40
2022/03/11 05:26:35;;;;;;;;;;;5.80;77.60;;;4.25;54.03;101375.28;2570633;30;138281;-40
2022/03/11 05:29:02;;;;;;;;;;;5.70;78.10;;;4.20;53.51;101377.56;2569860;30;137088;-40
2022/03/11 05:31:30;;;;;;;;;;;5.70;77.70;;;4.20;53.87;101374.88;2568202;30;137438;-39
2022/03/11 05:33:57;;;;;;;;;;;5.70;78.00;;;4.25;53.61;101365.31;2569261;30;137130;-40
2022/03/11 05:36:25;;;;;;;;;;;5.70;77.80;;;4.21;54.10;101354.97;2569436;30;137012;-40
2022/03/11 05:38:52;;;;;;;;;;;5.70;78.30;;;4.23;53.40;101348.41;2569679;30;137371;-40
2022/03/11 05:41:20;;;;;;;;;;;5.70;77.80;;;4.25;53.94;101350.97;2567539;30;139324;-40
2022/03/11 05:43:47;;;;;;;;;;;5.70;78.20;;;4.21;54.17;101349.56;2569373;30;136764;-40
2022/03/11 05:46:15;;;;;;;;;;;5.70;78.30;;;4.23;53.75;101352.94;2567931;30;137366;-39
2022/03/11 05:48:43;;;;;;;;;;;5.70;78.20;;;4.23;53.95;101358.34;2568722;30;136859;-40
2022/03/11 05:51:10;;;;;;;;;;;5.70;78.10;;;4.17;54.37;101344.47;2568293;30;137093;-40
2022/03/11 05:53:38;;;;;;;;;;;5.70;78.80;;;4.15;54.65;101342.97;2568462;30;136891;-40
2022/03/11 05:56:05;;;;;;;;;;;5.60;78.80;;;4.14;54.44;101355.59;2567991;30;138293;-39
2022/03/11 05:58:33;;;;;;;;;;;5.60;79.50;;;4.18;54.03;101348.88;2569016;30;137034;-40
2022/03/11 06:01:00;;;;;;;;;;;5.60;78.20;;;4.20;54.48;101337.06;2569838;30;137493;-40
2022/03/11 06:03:28;;;;;;;;;;;5.70;78.80;;;4.17;54.23;101335.53;2568248;30;136994;-39
2022/03/11 06:05:56;;;;;;;;;;;5.70;78.60;;;4.12;54.38;101329.78;2568120;30;138500;-40
2022/03/11 06:08:24;;;;;;;;;;;5.60;78.70;;;4.20;54.25;101342.47;2568875;30;138158;-40
2022/03/11 06:10:52;;;;;;;;;;;5.60;78.70;;;4.17;54.02;101330.97;2565853;30;138331;-40
2022/03/11 06:13:19;;;;;;;;;;;5.60;78.40;;;4.21;54.05;101341.47;2568268;30;138127;-40
2022/03/11 06:15:47;;;;;;;;;;;5.60;78.50;;;4.16;54.66;101318.47;2568053;30;138940;-40
2022/03/11 06:18:17;;;;;;;;;;;5.70;79.00;;;4.10;55.16;101327.22;2565323;30;137888;-40
2022/03/11 06:20:45;;;;;;;;;;;5.60;79.70;;;4.09;54.95;101328.22;2567761;30;138435;-40
2022/03/11 06:23:13;;;;;;;;;;;5.60;79.20;;;4.11;55.54;101330.75;2566795;30;137948;-40
2022/03/11 06:25:42;;;;;;;;;;;5.60;80.00;;;4.13;54.89;101334.16;2568987;30;137142;-39
2022/03/11 06:28:09;;;;;;;;;;;5.60;79.50;;;4.13;55.08;101332.28;2568492;30;137838;-39
2022/03/11 06:30:37;;;;;;;;;;;5.60;79.50;;;4.07;55.68;101326.66;2567904;30;137149;-40
2022/03/11 06:33:06;;;;;;;;;;;5.50;80.20;;;4.13;55.23;101324.19;2568263;30;138048;-39
2022/03/11 06:35:33;;;;;;;;;;;5.60;79.70;;;4.09;55.31;101336.31;2567444;30;138250;-40
2022/03/11 06:38:05;;;;;;;;;;;5.50;79.90;;;4.12;55.37;101340.56;2568952;30;136990;-39
2022/03/11 06:40:33;;;;;;;;;;;5.60;80.30;;;4.21;55.43;101327.94;2566227;30;138222;-40
2022/03/11 06:43:00;;;;;;;;;;;5.60;80.20;;;4.17;55.61;101336.38;2568959;30;136712;-40
2022/03/11 06:45:27;;;;;;;;;;;5.60;80.10;;;4.20;54.84;101335.22;2567320;30;138218;-39
2022/03/11 06:47:58;;;;;;;;;;;5.60;79.50;;;4.28;55.46;101327.16;2568238;30;136998;-40
2022/03/11 06:50:26;;;;;;;;;;;5.70;80.30;;;4.27;54.51;101322.78;2568900;30;138330;-40
2022/03/11 06:52:54;;;;;;;;;;;5.70;79.50;;;4.35;53.88;101321.97;2568092;30;137193;-39
2022/03/11 06:55:21;;;;;;;;;;;5.80;78.60;;;4.36;54.56;101318.28;2566924;30;139456;-39
2022/03/11 06:57:48;;;;;;;;;;;5.80;79.20;;;4.36;54.77;101331.78;2568113;30;136955;-41
2022/03/11 07:00:16;;;;;;;;;;;5.80;79.50;;;4.43;53.79;101327.44;2568946;30;138586;-40
2022/03/11 07:02:44;;;;;;;;;;;5.80;78.60;;;4.43;53.92;101330.13;2568989;30;137278;-40
2022/03/11 07:05:11;;;;;;;;;;;5.80;78.60;;;4.50;53.94;101321.38;2569034;30;139153;-40
2022/03/11 07:07:39;;;;;;;;;;;5.90;78.90;;;4.53;53.49;101338.13;2568489;30;137034;-40
2022/03/11 07:20:33;;;;;;;;;;;5.90;78.50;;;4.59;53.28;101312.31;2570449;30;136875;-41
2022/03/11 07:23:20;;;;;;;;;;;6.20;78.00;;;4.83;53.44;101337.78;2568107;30;137088;-41
2022/03/11 07:25:48;;;;;;;;;;;6.20;78.30;;;4.88;52.74;101348.97;2569368;30;138275;-41
2022/03/11 07:28:15;;;;;;;;;;;6.20;77.30;;;4.93;53.27;101343.91;2569905;30;137249;-40
2022/03/11 07:30:43;;;;;;;;;;;6.30;78.00;;;4.94;52.56;101348.31;2568814;30;137885;-41
2022/03/11 07:33:12;;;;;;;;;;;6.30;77.20;;;5.04;52.23;101340.06;2569839;30;136775;-40
2022/03/11 07:35:39;;;;;;;;;;;6.40;77.00;;;5.11;51.68;101334.84;2568547;30;137653;-41
2022/03/11 07:38:07;;;;;;;;;;;6.50;76.50;;;5.15;51.43;101339.75;2568040;30;137149;-41
2022/03/11 07:40:35;;;;;;;;;;;6.50;76.00;;;5.23;51.39;101343.53;2569348;30;137945;-41
2022/03/11 07:43:03;;;;;;;;;;;6.60;76.20;;;5.31;51.37;101333.56;2567729;30;137032;-40
2022/03/11 07:45:30;;;;;;;;;;;6.60;76.20;;;5.23;51.55;101317.28;2570092;30;138978;-41
2022/03/11 07:47:59;;;;;;;;;;;6.70;76.10;;;5.42;50.92;101329.69;2569614;30;137901;-41
2022/03/11 07:50:27;;;;;;;;;;;6.70;75.60;;;5.48;50.53;101339.00;2569414;30;139414;-41
2022/03/11 07:52:56;;;;;;;;;;;6.80;75.50;;;5.48;49.95;101344.41;2570048;30;137818;-41
2022/03/11 07:55:23;;;;;;;;;;;6.80;74.80;;;5.59;50.55;101332.44;2569162;30;137835;-41
2022/03/11 07:57:50;;;;;;;;;;;6.90;75.10;;;5.62;49.60;101321.25;2570072;30;137128;-41
2022/03/11 08:00:18;;;;;;;;;;;7.00;74.20;;;5.74;50.77;101321.78;2569358;30;137447;-41
2022/03/11 08:02:46;;;;;;;;;;;7.00;75.70;;;5.82;50.40;101327.19;2568162;30;137208;-41
2022/03/11 08:05:16;;;;;;;;;;;7.10;75.10;;;5.85;49.93;101318.75;2569414;30;137243;-41
2022/03/11 08:07:48;;;;;;;;;;;7.20;74.50;;;5.88;48.48;101318.41;2568465;30;137931;-40
2022/03/11 08:10:17;;;;;;;;;;;7.20;73.10;;;5.91;48.93;101319.91;2568743;30;137137;-41
2022/03/11 08:12:45;;;;;;;;;;;7.20;73.50;;;6.00;49.61;101318.06;2570363;30;137383;-41
2022/03/11 08:15:12;;;;;;;;;;;7.30;74.50;;;6.08;48.58;101312.66;2568867;30;137883;-41
2022/03/11 08:17:41;;;;;;;;;;;7.40;73.50;;;6.13;48.51;101320.28;2566843;30;137258;-41
2022/03/11 08:20:10;;;;;;;;;;;7.40;73.30;;;6.14;48.78;101312.00;2570311;30;137593;-41
2022/03/11 08:22:37;;;;;;;;;;;7.40;73.30;;;6.21;47.78;101314.00;2568787;30;137938;-41
2022/03/11 08:25:10;;;;;;;;;;;7.50;72.50;;;6.24;49.17;101305.53;2568430;30;137800;-42
2022/03/11 08:27:40;;;;;;;;;;;7.60;73.70;;;6.42;49.87;101317.03;2569312;30;137191;-42
2022/03/11 08:30:09;;;;;;;;;;;7.70;75.10;;;6.46;47.85;101312.94;2568482;30;137103;-41
2022/03/11 08:32:38;;;;;;;;;;;7.80;72.70;;;6.56;48.80;101309.19;2567774;30;137306;-41
2022/03/11 08:35:07;;;;;;;;;;;7.80;73.40;;;6.61;47.29;101291.38;2568205;30;138269;-41
2022/03/11 08:37:38;;;;;;;;;;;8.00;72.00;;;6.75;48.55;101299.78;2566282;30;136976;-41
2022/03/11 08:40:08;;;;;;;;;;;8.00;73.50;;;6.81;47.75;101288.25;2567436;30;138676;-41
2022/03/11 08:42:37;;;;;;;;;;;8.10;72.50;;;6.89;46.12;101279.22;2567064;30;137618;-41
2022/03/11 08:45:06;;;;;;;;;;;8.20;71.10;;;6.96;47.66;101287.50;2570337;30;138304;-41
2022/03/11 08:47:34;;;;;;;;;;;8.20;72.20;;;7.01;46.20;101285.09;2570375;30;136837;-41
2022/03/11 08:50:03;;;;;;;;;;;8.30;71.10;;;7.14;47.19;101287.22;2569698;30;138517;-41
2022/03/11 08:52:31;;;;;;;;;;;8.40;71.90;;;7.23;46.14;101286.19;2570666;30;137312;-42
2022/03/11 08:54:59;;;;;;;;;;;8.50;71.00;;;7.25;45.73;101285.97;2568292;30;138206;-41
2022/03/11 08:57:26;;;;;;;;;;;8.50;70.20;;;7.26;46.11;101283.09;2571507;30;137212;-41
2022/03/11 08:59:59;;;;;;;;;;;8.50;70.40;;;7.35;45.41;101278.47;2568353;30;138482;-41
2022/03/11 09:02:26;;;;;;;;;;;8.60;70.00;;;7.46;47.50;101269.06;2569213;30;136805;-41
2022/03/11 09:04:54;;;;;;;;;;;8.70;72.70;;;7.53;46.16;101272.75;2570651;30;138856;-41
2022/03/11 09:07:25;;;;;;;;;;;8.80;71.10;;;7.67;45.17;101275.66;2571233;30;137020;-41
2022/03/11 09:09:53;;;;;;;;;;;8.90;70.10;;;7.63;45.48;101278.75;2571263;30;138808;-41
2022/03/11 09:12:20;;;;;;;;;;;8.90;69.60;;;7.62;43.82;101262.66;2570498;30;137207;-42
2022/03/11 09:14:52;;;;;;;;;;;8.90;68.10;;;7.74;44.74;101276.66;2569776;30;136852;-41
2022/03/11 09:17:20;;;;;;;;;;;9.00;69.20;;;7.81;44.08;101269.47;2569528;30;136991;-41
2022/03/11 09:19:51;;;;;;;;;;;9.00;68.60;;;7.87;45.80;101263.28;2570614;30;138948;-41
2022/03/11 09:22:40;;;;;;;;;;;9.10;70.50;;;8.01;44.11;101266.22;2570164;30;136991;-41
2022/03/11 09:25:09;;;;;;;;;;;9.20;68.90;;;8.05;44.19;101264.81;2568998;30;138478;-41
2022/03/11 09:27:37;;;;;;;;;;;9.30;69.10;;;8.12;43.97;101260.31;2569433;30;137085;-41
2022/03/11 09:30:07;;;;;;;;;;;9.30;68.10;;;8.27;44.50;101264.94;2569634;30;137031;-41
2022/03/11 09:32:36;;;;;;;;;;;9.40;69.30;;;8.37;44.13;101270.94;2568111;30;138216;-41
2022/03/11 09:35:08;;;;;;;;;;;9.50;69.10;;;8.47;43.68;101267.94;2568655;30;138309;-41
2022/03/11 09:37:37;;;;;;;;;;;9.60;68.10;;;8.46;42.77;101268.97;2570180;30;137411;-41
2022/03/11 09:40:06;;;;;;;;;;;9.70;67.40;;;8.53;44.12;101274.56;2567888;30;138262;-41
2022/03/11 09:42:34;;;;;;;;;;;9.80;68.80;;;8.62;43.58;101273.41;2569503;30;137833;-41
2022/03/11 09:45:03;;;;;;;;;;;9.80;68.30;;;8.62;43.16;101267.97;2568681;30;138372;-41
2022/03/11 09:47:31;;;;;;;;;;;9.90;67.90;;;8.72;42.61;101267.69;2573107;30;137789;-41
2022/03/11 09:49:59;;;;;;;;;;;10.00;67.30;;;8.85;44.34;101256.94;2569424;30;138327;-40
2022/03/11 09:52:26;;;;;;;;;;;10.00;69.40;;;8.92;43.23;101276.09;2569941;30;137064;-41
2022/03/11 09:54:54;;;;;;;;;;;10.10;68.20;;;8.99;43.01;101255.25;2570195;30;139219;-41
2022/03/11 09:57:26;;;;;;;;;;;10.20;68.20;;;9.10;43.27;101267.50;2569521;30;137113;-41
2022/03/11 09:59:56;;;;;;;;;;;10.30;68.30;;;9.18;42.19;101255.66;2568229;30;138581;-41
2022/03/11 10:02:24;;;;;;;;;;;10.30;67.10;;;9.24;42.02;101265.78;2568781;30;136642;-42
2022/03/11 10:04:56;;;;;;;;;;;10.40;67.20;;;9.24;41.80;101260.31;2570510;30;138988;-41
2022/03/11 10:07:44;;;;;;;;;;;10.40;66.40;;;9.38;42.45;101260.47;2568215;30;137224;-41
2022/03/11 10:10:19;;;;;;;;;;;10.50;67.40;;;9.39;40.65;101256.72;2567989;30;138200;-41
2022/03/11 10:13:08;;;;;;;;;;;10.60;65.80;;;9.54;43.21;101254.75;2567734;30;137094;-41
2022/03/11 10:15:38;;;;;;;;;;;10.70;68.30;;;9.65;41.17;101261.56;2571116;30;137504;-41
2022/03/11 10:18:09;;;;;;;;;;;10.80;66.20;;;9.70;40.61;101258.25;2568648;30;137703;-41
2022/03/11 10:20:37;;;;;;;;;;;10.90;65.40;;;9.81;41.24;101257.72;2566540;30;138380;-41
2022/03/11 10:23:09;;;;;;;;;;;11.00;66.20;;;9.77;40.51;101264.59;2570335;30;137133;-41
2022/03/11 10:25:37;;;;;;;;;;;11.00;65.00;;;9.88;40.44;101266.81;2569605;30;137425;-40
2022/03/11 10:28:10;;;;;;;;;;;11.00;65.00;;;9.96;41.44;101267.69;2570137;30;136955;-42
2022/03/11 10:30:40;;;;;;;;;;;11.10;66.30;;;10.00;40.52;101263.53;2568783;30;139339;-41
2022/03/11 10:33:12;;;;;;;;;;;11.20;65.10;;;10.00;41.10;101260.81;2570232;30;139127;-41
2022/03/11 10:35:44;;;;;;;;;;;11.20;66.00;;;10.04;40.84;101260.22;2569280;30;139473;-41
2022/03/11 10:38:16;;;;;;;;;;;11.30;65.50;;;10.19;41.54;101251.09;2570173;30;137266;-41
2022/03/11 10:40:58;;;;;;;;;;;11.30;66.50;;;10.26;40.44;101245.69;2567881;30;138900;-41
2022/03/11 10:43:28;;;;;;;;;;;11.40;64.90;;;10.32;40.64;101239.41;2566732;30;138205;-42
2022/03/11 10:46:17;;;;;;;;;;;11.50;65.40;;;10.40;39.61;101247.50;2570231;30;139375;-41
2022/03/11 10:48:51;;;;;;;;;;;11.50;63.60;;;10.29;38.89;101234.38;2569141;30;137156;-41
2022/03/11 10:51:20;;;;;;;;;;;11.60;63.70;;;10.33;39.51;101236.50;2569768;30;138386;-42
2022/03/11 10:53:49;;;;;;;;;;;11.60;63.70;;;10.38;39.54;101235.91;2569256;30;136720;-41
2022/03/11 10:56:29;;;;;;;;;;;11.60;64.00;;;10.33;39.68;101225.59;2570380;30;137311;-41
2022/03/11 10:58:56;;;;;;;;;;;11.60;63.90;;;10.47;40.37;101214.78;2569669;30;137412;-41
2022/03/11 11:01:39;;;;;;;;;;;11.70;65.00;;;10.53;39.98;101216.72;2568376;30;139010;-41
2022/03/11 11:04:12;;;;;;;;;;;11.70;64.00;;;10.69;39.15;101215.53;2569607;30;137500;-41
2022/03/11 11:06:40;;;;;;;;;;;11.80;63.80;;;10.80;40.17;101216.81;2571299;30;138326;-39
2022/03/11 11:09:10;;;;;;;;;;;11.90;64.80;;;10.78;37.81;101214.28;2569296;30;137325;-41
2022/03/11 11:11:38;;;;;;;;;;;12.00;62.30;;;10.81;39.00;101215.78;2567809;30;138089;-41
2022/03/11 11:14:07;;;;;;;;;;;12.00;63.60;;;10.94;39.42;101201.31;2567813;30;137186;-41
2022/03/11 11:16:40;;;;;;;;;;;12.10;64.80;;;10.92;38.70;101217.91;2568218;30;138998;-41
2022/03/11 11:19:10;;;;;;;;;;;12.10;63.30;;;10.92;38.55;101197.97;2569418;30;137144;-41
2022/03/11 11:21:41;;;;;;;;;;;12.20;62.90;;;11.04;40.51;101196.31;2568515;30;138125;-41
2022/03/11 11:24:18;;;;;;;;;;;12.20;64.80;;;11.16;39.10;101195.72;2569017;30;137085;-41
2022/03/11 11:26:48;;;;;;;;;;;12.20;64.20;;;11.24;38.88;101195.50;2567845;30;137268;-43
2022/03/11 11:29:20;;;;;;;;;;;12.30;63.40;;;11.32;38.34;101178.91;2569703;30;137270;-41
2022/03/11 11:31:49;;;;;;;;;;;12.40;63.30;;;11.40;38.24;101180.59;2568198;30;139281;-41